createdAt,value
2023-03-23T00:00:21.939Z,100.0
2023-03-23T00:05:21.942Z,100.0
2023-03-23T00:10:21.969Z,100.0
2023-03-23T00:15:21.942Z,100.0
2023-03-23T00:20:21.945Z,100.0
2023-03-23T00:25:21.969Z,100.0
2023-03-23T00:30:21.980Z,100.0
2023-03-23T00:35:21.976Z,100.0
2023-03-23T00:40:21.976Z,99.9
2023-03-23T00:45:21.988Z,100.0
2023-03-23T00:50:26.774Z,99.6
2023-03-23T00:55:21.972Z,99.5
2023-03-23T01:00:21.976Z,99.7
2023-03-23T01:05:21.980Z,99.6
2023-03-23T01:10:22.009Z,99.3
2023-03-23T01:15:21.980Z,99.2
2023-03-23T01:20:21.989Z,99.2
2023-03-23T01:25:21.994Z,98.5
2023-03-23T01:30:22.014Z,98.1
2023-03-23T01:35:21.994Z,98.0
2023-03-23T01:40:22.023Z,97.5
2023-03-23T01:45:22.011Z,97.2
2023-03-23T01:50:22.007Z,97.3
2023-03-23T01:55:22.008Z,97.6
2023-03-23T02:00:22.012Z,97.2
2023-03-23T02:05:22.014Z,96.9
2023-03-23T02:10:22.042Z,96.8
2023-03-23T02:15:22.024Z,96.1
2023-03-23T02:20:22.022Z,95.3
2023-03-23T02:25:22.018Z,95.2
2023-03-23T02:30:22.066Z,95.2
2023-03-23T02:35:22.072Z,94.9
2023-03-23T02:40:22.062Z,94.6
2023-03-23T02:45:22.071Z,95.0
2023-03-23T02:50:22.044Z,94.5
2023-03-23T02:55:22.040Z,94.6
2023-03-23T03:00:22.039Z,94.5
2023-03-23T03:05:22.042Z,94.7
2023-03-23T03:10:22.074Z,94.5
2023-03-23T03:15:22.050Z,95.1
2023-03-23T03:20:22.060Z,95.1
2023-03-23T03:25:22.066Z,95.0
2023-03-23T03:30:22.060Z,94.9
2023-03-23T03:35:22.063Z,94.9
2023-03-23T03:40:22.113Z,94.6
2023-03-23T03:45:22.070Z,94.3
2023-03-23T03:50:22.077Z,94.1
2023-03-23T03:55:22.080Z,94.1
2023-03-23T04:00:22.082Z,93.7
2023-03-23T04:05:22.095Z,92.9
2023-03-23T04:10:32.789Z,92.4
2023-03-23T04:15:22.087Z,92.5
2023-03-23T04:20:32.377Z,92.3
2023-03-23T04:25:22.091Z,92.1
2023-03-23T04:30:22.103Z,92.1
2023-03-23T04:35:22.101Z,91.8
2023-03-23T04:40:22.133Z,91.9
2023-03-23T04:45:22.106Z,91.8
2023-03-23T04:50:22.108Z,91.7
2023-03-23T04:55:22.117Z,92.2
2023-03-23T05:00:22.123Z,92.2
2023-03-23T05:05:22.114Z,91.8
2023-03-23T05:10:25.100Z,91.1
2023-03-23T05:15:22.128Z,90.7
2023-03-23T05:20:22.124Z,90.0
2023-03-23T05:25:22.132Z,90.3
2023-03-23T05:30:22.133Z,89.3
2023-03-23T05:35:22.137Z,90.1
2023-03-23T05:40:22.166Z,89.6
2023-03-23T05:45:22.138Z,89.8
2023-03-23T05:50:22.141Z,89.9
2023-03-23T05:55:22.140Z,89.9
2023-03-23T06:00:22.174Z,91.3
2023-03-23T06:05:22.166Z,91.7
2023-03-23T06:10:22.597Z,91.6
2023-03-23T06:15:22.187Z,91.1
2023-03-23T06:20:22.200Z,91.6
2023-03-23T06:25:22.164Z,91.9
2023-03-23T06:30:22.177Z,92.2
2023-03-23T06:35:22.162Z,92.8
2023-03-23T06:40:22.194Z,96.3
2023-03-23T06:45:22.271Z,99.0
2023-03-23T06:50:22.189Z,100.0
2023-03-23T06:55:22.186Z,100.0
2023-03-23T07:00:22.188Z,100.0
2023-03-23T07:05:22.193Z,100.0
2023-03-23T07:10:22.220Z,100.0
2023-03-23T07:15:22.204Z,100.0
2023-03-23T07:20:22.199Z,100.0
2023-03-23T07:25:22.205Z,100.0
2023-03-23T07:30:22.216Z,100.0
2023-03-23T07:35:22.273Z,100.0
2023-03-23T07:40:22.316Z,100.0
2023-03-23T07:45:22.206Z,100.0
2023-03-23T07:50:22.217Z,100.0
2023-03-23T07:55:22.214Z,100.0
2023-03-23T08:00:22.225Z,100.0
2023-03-23T08:05:22.218Z,100.0
2023-03-23T08:10:22.256Z,98.8
2023-03-23T08:15:22.228Z,98.1
2023-03-23T08:20:22.229Z,98.1
2023-03-23T08:25:22.236Z,97.7
2023-03-23T08:30:22.231Z,97.5
2023-03-23T08:35:22.242Z,97.7
2023-03-23T08:40:22.266Z,97.9
2023-03-23T08:45:22.242Z,98.5
2023-03-23T08:50:22.246Z,98.4
2023-03-23T08:55:22.268Z,98.0
2023-03-23T09:00:22.257Z,97.1
2023-03-23T09:05:22.262Z,96.8
2023-03-23T09:10:22.357Z,96.5
2023-03-23T09:20:22.292Z,96.9
2023-03-23T09:25:22.268Z,96.5
2023-03-23T09:30:22.297Z,95.8
2023-03-23T09:35:22.276Z,95.9
2023-03-23T09:40:22.307Z,95.1
2023-03-23T09:45:22.322Z,93.6
2023-03-23T09:50:22.293Z,93.4
2023-03-23T09:55:22.289Z,92.5
2023-03-23T10:00:22.416Z,91.0
2023-03-23T10:05:22.293Z,90.5
2023-03-23T10:10:22.328Z,88.6
2023-03-23T10:15:22.324Z,89.5
2023-03-23T10:20:22.310Z,88.1
2023-03-23T10:25:22.307Z,88.8
2023-03-23T10:30:22.311Z,87.9
2023-03-23T10:35:22.329Z,85.7
2023-03-23T10:40:22.337Z,85.5
2023-03-23T10:45:22.368Z,85.2
2023-03-23T10:50:22.323Z,83.4
2023-03-23T10:55:22.323Z,83.7
2023-03-23T11:00:22.552Z,83.8
2023-03-23T11:05:24.058Z,84.7
2023-03-23T11:10:22.406Z,81.3
2023-03-23T11:15:22.334Z,80.4
2023-03-23T11:20:22.349Z,78.4
2023-03-23T11:25:22.358Z,72.9
2023-03-23T11:30:22.363Z,72.1
2023-03-23T11:35:22.349Z,73.8
2023-03-23T11:40:22.394Z,73.4
2023-03-23T11:45:22.370Z,74.2
2023-03-23T11:50:22.364Z,70.5
2023-03-23T11:55:22.384Z,69.6
2023-03-23T12:00:22.364Z,72.4
2023-03-23T12:05:22.370Z,73.8
2023-03-23T12:10:30.684Z,72.2
2023-03-23T12:15:22.390Z,71.6
2023-03-23T12:20:22.629Z,66.1
2023-03-23T12:25:22.381Z,68.6
2023-03-23T12:30:22.378Z,69.8
2023-03-23T12:35:24.225Z,69.3
2023-03-23T12:40:22.413Z,69.8
2023-03-23T12:45:22.399Z,76.1
2023-03-23T12:50:22.419Z,84.1
2023-03-23T12:55:22.390Z,88.6
2023-03-23T13:00:22.399Z,88.6
2023-03-23T13:05:22.410Z,90.2
2023-03-23T13:10:22.430Z,88.7
2023-03-23T13:15:22.411Z,85.4
2023-03-23T13:20:22.417Z,86.0
2023-03-23T13:25:22.410Z,83.7
2023-03-23T13:30:22.487Z,80.7
2023-03-23T13:35:22.422Z,79.5
2023-03-23T13:40:22.721Z,77.1
2023-03-23T13:45:22.429Z,73.8
2023-03-23T13:50:22.431Z,73.3
2023-03-23T13:55:22.436Z,73.6
2023-03-23T14:00:22.447Z,72.3
2023-03-23T14:05:22.483Z,73.6
2023-03-23T14:10:22.510Z,71.5
2023-03-23T14:15:22.450Z,71.5
2023-03-23T14:20:22.448Z,71.7
2023-03-23T14:25:22.450Z,72.0
2023-03-23T14:30:22.476Z,71.6
2023-03-23T14:35:22.455Z,71.9
2023-03-23T14:40:22.496Z,74.0
2023-03-23T14:45:22.457Z,83.4
2023-03-23T14:50:22.463Z,82.9
2023-03-23T14:55:22.474Z,83.2
2023-03-23T15:00:22.473Z,83.2
2023-03-23T15:05:22.463Z,82.4
2023-03-23T15:10:22.497Z,80.6
2023-03-23T15:15:22.473Z,81.2
2023-03-23T15:20:22.476Z,81.0
2023-03-23T15:25:22.494Z,81.0
2023-03-23T15:30:22.524Z,82.0
2023-03-23T15:35:22.496Z,79.8
2023-03-23T15:40:22.526Z,77.4
2023-03-23T15:45:22.495Z,74.7
2023-03-23T15:50:22.513Z,71.6
2023-03-23T15:55:22.509Z,71.6
2023-03-23T16:00:22.509Z,71.8
2023-03-23T16:05:22.522Z,71.1
2023-03-23T16:10:22.538Z,71.5
2023-03-23T16:15:22.531Z,72.5
2023-03-23T16:20:22.527Z,72.3
2023-03-23T16:25:22.527Z,70.0
2023-03-23T16:30:22.549Z,72.2
2023-03-23T16:35:22.541Z,71.3
2023-03-23T16:40:22.549Z,71.9
2023-03-23T16:45:22.574Z,71.9
2023-03-23T16:50:22.544Z,73.1
2023-03-23T16:55:22.556Z,74.1
2023-03-23T17:00:22.630Z,73.8
2023-03-23T17:10:22.586Z,74.0
2023-03-23T17:15:22.561Z,74.5
2023-03-23T17:20:22.572Z,75.4
2023-03-23T17:25:22.566Z,75.9
2023-03-23T17:30:22.573Z,76.3
2023-03-23T17:35:22.573Z,77.0
2023-03-23T17:40:22.607Z,76.9
2023-03-23T17:45:22.613Z,76.5
2023-03-23T17:50:22.582Z,76.7
2023-03-23T17:55:22.585Z,76.5
2023-03-23T18:00:22.576Z,76.7
2023-03-23T18:05:22.584Z,76.7
2023-03-23T18:10:22.613Z,77.7
2023-03-23T18:15:22.591Z,78.4
2023-03-23T18:20:22.604Z,78.7
2023-03-23T18:25:22.593Z,78.4
2023-03-23T18:30:22.612Z,78.8
2023-03-23T18:35:22.597Z,79.3
2023-03-23T18:40:22.632Z,79.7
2023-03-23T18:45:22.683Z,81.5
2023-03-23T18:50:22.617Z,81.5
2023-03-23T18:55:22.623Z,81.5
2023-03-23T19:00:22.631Z,82.3
2023-03-23T19:05:22.633Z,82.5
2023-03-23T19:10:22.652Z,82.9
2023-03-23T19:15:22.638Z,84.8
2023-03-23T19:20:49.743Z,85.6
2023-03-23T19:25:22.644Z,86.5
2023-03-23T19:30:22.670Z,87.2
2023-03-23T19:35:22.648Z,88.0
2023-03-23T19:40:35.383Z,89.7
2023-03-23T19:45:22.649Z,90.2
2023-03-23T19:50:22.651Z,91.0
2023-03-23T19:55:22.657Z,91.5
2023-03-23T20:00:24.032Z,92.1
2023-03-23T20:05:22.713Z,92.2
2023-03-23T20:10:22.704Z,92.4
2023-03-23T20:15:22.665Z,93.1
2023-03-23T20:20:22.790Z,93.9
2023-03-23T20:25:22.665Z,94.5
2023-03-23T20:30:22.728Z,94.8
2023-03-23T20:35:22.682Z,95.1
2023-03-23T20:40:22.707Z,95.3
2023-03-23T20:45:22.680Z,95.5
2023-03-23T20:50:22.687Z,95.5
2023-03-23T20:55:22.701Z,95.6
2023-03-23T21:00:22.696Z,96.0
2023-03-23T21:05:22.699Z,96.3
2023-03-23T21:10:22.727Z,96.3
2023-03-23T21:15:22.706Z,96.5
2023-03-23T21:20:22.705Z,96.3
2023-03-23T21:25:34.280Z,96.9
2023-03-23T21:30:22.708Z,97.2
2023-03-23T21:35:22.812Z,97.6
2023-03-23T21:40:22.756Z,98.1
2023-03-23T21:45:22.708Z,98.4
2023-03-23T21:50:22.717Z,98.8
2023-03-23T21:55:22.720Z,99.1
2023-03-23T22:00:22.716Z,99.3
2023-03-23T22:05:22.726Z,99.7
2023-03-23T22:10:22.774Z,100.0
2023-03-23T22:15:22.734Z,100.0
2023-03-23T22:20:22.742Z,100.0
2023-03-23T22:25:22.752Z,100.0
2023-03-23T22:30:22.754Z,100.0
2023-03-23T22:35:22.753Z,100.0
2023-03-23T22:40:22.774Z,100.0
2023-03-23T22:45:22.794Z,100.0
2023-03-23T22:50:22.775Z,100.0
2023-03-23T22:55:22.759Z,99.9
2023-03-23T23:00:22.767Z,99.7
2023-03-23T23:05:22.767Z,99.9
2023-03-23T23:10:22.787Z,99.7
2023-03-23T23:15:22.778Z,99.8
2023-03-23T23:20:22.778Z,99.9
2023-03-23T23:25:22.779Z,100.0
2023-03-23T23:30:22.781Z,100.0
2023-03-23T23:35:22.828Z,100.0
2023-03-23T23:40:22.818Z,100.0
2023-03-23T23:45:22.786Z,100.0
2023-03-23T23:50:22.804Z,100.0
2023-03-23T23:55:22.811Z,100.0
